RYR3YB EPPO-ENTO
Flight info
| Callsign | RYR3YB |
|---|---|
| Flight time | 1h 17m |
| Altitude | 38000 |
| Route | XERBI L996 GOSOT DCT SABAK L617 REPKU |
| Aircraft | B738/M-SDE2E3FGHIRWXY/LB1 |
Departure
| Time | 2026-05-07 13:00 |
|---|---|
| Airport | Poznań-Ławica Airport (EPPO) |
Arrival
| Time | 2026-05-07 14:17 |
|---|---|
| Airport | Sandefjord Airport, Torp (ENTO) |
| Time | Latitude | Longitude | Altitude | Speed | Heading |
|---|---|---|---|---|---|
| 2026-05-07 12:39 | 52.41563 | 16.83126 | 292 ft | 0 kts | 193° |
| 2026-05-07 12:54 | 52.41564 | 16.83126 | 287 ft | 2 kts | 193° |
| 2026-05-07 12:54 | 52.41588 | 16.83133 | 290 ft | 4 kts | 182° |
| 2026-05-07 12:54 | 52.41614 | 16.83129 | 292 ft | 4 kts | 154° |
| 2026-05-07 12:55 | 52.41630 | 16.83105 | 292 ft | 2 kts | 103° |
| 2026-05-07 12:55 | 52.41630 | 16.83104 | 291 ft | 1 kts | 103° |
| 2026-05-07 12:57 | 52.41629 | 16.83106 | 292 ft | 2 kts | 103° |
| 2026-05-07 12:57 | 52.41615 | 16.83211 | 287 ft | 17 kts | 102° |
| 2026-05-07 12:58 | 52.41583 | 16.83442 | 287 ft | 22 kts | 102° |
| 2026-05-07 12:58 | 52.41564 | 16.83687 | 287 ft | 21 kts | 92° |
| 2026-05-07 12:58 | 52.41586 | 16.83916 | 287 ft | 21 kts | 52° |
| 2026-05-07 12:58 | 52.41703 | 16.84022 | 287 ft | 17 kts | 19° |
| 2026-05-07 12:59 | 52.41807 | 16.84082 | 288 ft | 10 kts | 8° |
| 2026-05-07 12:59 | 52.41825 | 16.84053 | 289 ft | 0 kts | 288° |
| 2026-05-07 12:59 | 52.41874 | 16.83809 | 294 ft | 58 kts | 289° |
| 2026-05-07 12:59 | 52.42071 | 16.82802 | 286 ft | 125 kts | 287° |
| 2026-05-07 13:00 | 52.42375 | 16.81163 | 407 ft | 166 kts | 292° |
| 2026-05-07 13:00 | 52.42743 | 16.79315 | 1081 ft | 177 kts | 291° |
| 2026-05-07 13:00 | 52.43117 | 16.77337 | 1874 ft | 190 kts | 290° |
| 2026-05-07 13:00 | 52.43569 | 16.75121 | 2379 ft | 221 kts | 291° |
| 2026-05-07 13:01 | 52.44141 | 16.72651 | 3051 ft | 238 kts | 294° |
| 2026-05-07 13:01 | 52.44617 | 16.70037 | 3972 ft | 239 kts | 283° |
| 2026-05-07 13:01 | 52.45033 | 16.67322 | 4576 ft | 250 kts | 287° |
| 2026-05-07 13:01 | 52.45551 | 16.64575 | 5169 ft | 264 kts | 287° |
| 2026-05-07 13:02 | 52.46146 | 16.61566 | 5431 ft | 289 kts | 288° |
| 2026-05-07 13:02 | 52.46760 | 16.58418 | 6350 ft | 287 kts | 287° |
| 2026-05-07 13:02 | 52.47339 | 16.55381 | 7639 ft | 269 kts | 286° |
| 2026-05-07 13:02 | 52.47894 | 16.52446 | 8565 ft | 271 kts | 285° |
| 2026-05-07 13:03 | 52.48471 | 16.49487 | 9367 ft | 275 kts | 290° |
| 2026-05-07 13:03 | 52.49426 | 16.46770 | 10147 ft | 280 kts | 302° |
| 2026-05-07 13:03 | 52.50573 | 16.44072 | 10535 ft | 300 kts | 302° |
| 2026-05-07 13:03 | 52.51809 | 16.41147 | 10737 ft | 323 kts | 302° |
| 2026-05-07 13:04 | 52.53106 | 16.38046 | 11225 ft | 334 kts | 301° |
| 2026-05-07 13:04 | 52.54422 | 16.34864 | 11933 ft | 338 kts | 301° |
| 2026-05-07 13:04 | 52.55743 | 16.31644 | 12699 ft | 342 kts | 301° |
| 2026-05-07 13:04 | 52.57076 | 16.28376 | 13460 ft | 346 kts | 301° |
| 2026-05-07 13:05 | 52.58425 | 16.25060 | 14187 ft | 351 kts | 301° |
| 2026-05-07 13:05 | 52.59791 | 16.21698 | 14877 ft | 356 kts | 301° |
| 2026-05-07 13:05 | 52.61177 | 16.18285 | 15599 ft | 361 kts | 301° |
| 2026-05-07 13:05 | 52.62579 | 16.14826 | 16320 ft | 365 kts | 301° |
| 2026-05-07 13:06 | 52.63996 | 16.11327 | 17022 ft | 370 kts | 301° |
| 2026-05-07 13:06 | 52.65429 | 16.07781 | 17778 ft | 373 kts | 301° |
| 2026-05-07 13:06 | 52.66871 | 16.04210 | 18472 ft | 377 kts | 301° |
| 2026-05-07 13:06 | 52.68333 | 16.00587 | 19051 ft | 382 kts | 301° |
| 2026-05-07 13:07 | 52.69813 | 15.96911 | 19642 ft | 387 kts | 301° |
| 2026-05-07 13:07 | 52.71310 | 15.93193 | 20222 ft | 391 kts | 302° |
| 2026-05-07 13:07 | 52.73136 | 15.89832 | 20765 ft | 400 kts | 321° |
| 2026-05-07 13:07 | 52.75541 | 15.87575 | 21375 ft | 405 kts | 334° |
| 2026-05-07 13:08 | 52.78123 | 15.85664 | 21962 ft | 409 kts | 335° |
| 2026-05-07 13:08 | 52.80755 | 15.83781 | 22504 ft | 414 kts | 336° |
| 2026-05-07 13:08 | 52.83413 | 15.81874 | 23069 ft | 418 kts | 335° |
| 2026-05-07 13:08 | 52.86077 | 15.79933 | 23716 ft | 418 kts | 335° |
| 2026-05-07 13:09 | 52.88745 | 15.77962 | 24214 ft | 421 kts | 335° |
| 2026-05-07 13:09 | 52.91426 | 15.75960 | 24650 ft | 425 kts | 335° |
| 2026-05-07 13:09 | 52.94132 | 15.73930 | 25079 ft | 429 kts | 334° |
| 2026-05-07 13:09 | 52.96861 | 15.71876 | 25488 ft | 433 kts | 334° |
| 2026-05-07 13:10 | 52.99624 | 15.69796 | 25902 ft | 437 kts | 334° |
| 2026-05-07 13:10 | 53.02402 | 15.67703 | 26353 ft | 440 kts | 334° |
| 2026-05-07 13:10 | 53.05196 | 15.65596 | 26797 ft | 442 kts | 334° |
| 2026-05-07 13:10 | 53.08007 | 15.63474 | 27220 ft | 445 kts | 334° |
| 2026-05-07 13:11 | 53.10836 | 15.61335 | 27624 ft | 448 kts | 334° |
| 2026-05-07 13:11 | 53.13688 | 15.59175 | 28028 ft | 451 kts | 333° |
| 2026-05-07 13:11 | 53.16556 | 15.57000 | 28427 ft | 454 kts | 333° |
| 2026-05-07 13:11 | 53.19400 | 15.54839 | 28809 ft | 457 kts | 333° |
| 2026-05-07 13:12 | 53.22340 | 15.52603 | 29189 ft | 460 kts | 333° |
| 2026-05-07 13:12 | 53.25207 | 15.50420 | 29799 ft | 456 kts | 335° |
| 2026-05-07 13:12 | 53.28089 | 15.48223 | 30298 ft | 455 kts | 334° |
| 2026-05-07 13:12 | 53.30989 | 15.46009 | 30505 ft | 460 kts | 334° |
| 2026-05-07 13:13 | 53.33919 | 15.43773 | 30695 ft | 465 kts | 334° |
| 2026-05-07 13:13 | 53.36867 | 15.41522 | 30955 ft | 467 kts | 334° |
| 2026-05-07 13:13 | 53.39835 | 15.39252 | 31229 ft | 470 kts | 334° |
| 2026-05-07 13:13 | 53.42809 | 15.36958 | 31511 ft | 471 kts | 333° |
| 2026-05-07 13:14 | 53.45791 | 15.34644 | 31856 ft | 472 kts | 334° |
| 2026-05-07 13:14 | 53.48858 | 15.32687 | 32203 ft | 474 kts | 343° |
| 2026-05-07 13:14 | 53.52082 | 15.31483 | 32520 ft | 475 kts | 347° |
| 2026-05-07 13:14 | 53.55345 | 15.30472 | 32816 ft | 477 kts | 347° |
| 2026-05-07 13:15 | 53.58610 | 15.29448 | 33139 ft | 478 kts | 347° |
| 2026-05-07 13:15 | 53.61868 | 15.28357 | 33465 ft | 478 kts | 346° |
| 2026-05-07 13:15 | 53.65128 | 15.27220 | 33787 ft | 478 kts | 345° |
| 2026-05-07 13:15 | 53.68339 | 15.26083 | 34075 ft | 479 kts | 345° |
| 2026-05-07 13:16 | 53.71600 | 15.24932 | 34335 ft | 479 kts | 345° |
| 2026-05-07 13:16 | 53.74864 | 15.23786 | 34627 ft | 479 kts | 346° |
| 2026-05-07 13:16 | 53.78127 | 15.22644 | 34939 ft | 478 kts | 346° |
| 2026-05-07 13:16 | 53.81367 | 15.21513 | 35384 ft | 473 kts | 345° |
| 2026-05-07 13:17 | 53.84579 | 15.20392 | 35798 ft | 470 kts | 345° |
| 2026-05-07 13:17 | 53.87777 | 15.19270 | 36016 ft | 471 kts | 345° |
| 2026-05-07 13:17 | 53.90995 | 15.18138 | 36192 ft | 473 kts | 345° |
| 2026-05-07 13:17 | 53.94224 | 15.16999 | 36433 ft | 473 kts | 345° |
| 2026-05-07 13:18 | 53.97447 | 15.15862 | 36725 ft | 472 kts | 345° |
| 2026-05-07 13:18 | 54.00628 | 15.14738 | 37025 ft | 471 kts | 345° |
| 2026-05-07 13:18 | 54.03837 | 15.13602 | 37257 ft | 471 kts | 345° |
| 2026-05-07 13:18 | 54.07051 | 15.12463 | 37509 ft | 471 kts | 345° |
| 2026-05-07 13:19 | 54.10258 | 15.11325 | 37829 ft | 469 kts | 345° |
| 2026-05-07 13:19 | 54.13446 | 15.10191 | 38098 ft | 469 kts | 345° |
| 2026-05-07 13:19 | 54.16638 | 15.09054 | 38290 ft | 469 kts | 345° |
| 2026-05-07 13:19 | 54.19845 | 15.07909 | 38483 ft | 470 kts | 345° |
| 2026-05-07 13:20 | 54.22856 | 15.06833 | 38704 ft | 469 kts | 345° |
| 2026-05-07 13:20 | 54.26027 | 15.05700 | 38901 ft | 469 kts | 345° |
| 2026-05-07 13:20 | 54.29205 | 15.04551 | 39074 ft | 469 kts | 346° |
| 2026-05-07 13:20 | 54.32407 | 15.03379 | 39242 ft | 469 kts | 345° |
| 2026-05-07 13:21 | 54.35600 | 15.02205 | 39402 ft | 469 kts | 345° |
| 2026-05-07 13:21 | 54.38789 | 15.01034 | 39575 ft | 468 kts | 345° |
| 2026-05-07 13:21 | 54.41976 | 14.99863 | 39728 ft | 468 kts | 345° |
| 2026-05-07 13:21 | 54.45120 | 14.98719 | 39872 ft | 468 kts | 346° |
| 2026-05-07 13:22 | 54.48312 | 14.97566 | 40014 ft | 468 kts | 346° |
| 2026-05-07 13:22 | 54.51502 | 14.96416 | 40083 ft | 469 kts | 346° |
| 2026-05-07 13:22 | 54.56834 | 14.94486 | 40088 ft | 470 kts | 346° |
| 2026-05-07 13:23 | 54.63218 | 14.92166 | 40097 ft | 468 kts | 345° |
| 2026-05-07 13:23 | 54.69581 | 14.89843 | 40088 ft | 465 kts | 345° |
| 2026-05-07 13:24 | 54.75902 | 14.87527 | 40094 ft | 463 kts | 345° |
| 2026-05-07 13:24 | 54.82095 | 14.84681 | 40084 ft | 457 kts | 333° |
| 2026-05-07 13:25 | 54.87785 | 14.79838 | 40111 ft | 455 kts | 330° |
| 2026-05-07 13:25 | 54.93410 | 14.74814 | 40106 ft | 455 kts | 330° |
| 2026-05-07 13:26 | 54.99065 | 14.69809 | 40104 ft | 456 kts | 330° |
| 2026-05-07 13:26 | 55.04711 | 14.64858 | 40105 ft | 457 kts | 330° |
| 2026-05-07 13:27 | 55.10408 | 14.59869 | 40106 ft | 459 kts | 330° |
| 2026-05-07 13:27 | 55.16127 | 14.54848 | 40103 ft | 460 kts | 330° |
| 2026-05-07 13:28 | 55.21859 | 14.49798 | 40103 ft | 461 kts | 330° |
| 2026-05-07 13:28 | 55.27591 | 14.44729 | 40114 ft | 462 kts | 330° |
| 2026-05-07 13:29 | 55.33302 | 14.39663 | 40102 ft | 462 kts | 330° |
| 2026-05-07 13:29 | 55.39046 | 14.34551 | 40092 ft | 462 kts | 330° |
| 2026-05-07 13:30 | 55.44771 | 14.29440 | 40103 ft | 461 kts | 330° |
| 2026-05-07 13:30 | 55.50485 | 14.24321 | 40104 ft | 460 kts | 330° |
| 2026-05-07 13:31 | 55.56183 | 14.19199 | 40096 ft | 459 kts | 330° |
| 2026-05-07 13:31 | 55.61872 | 14.14069 | 40085 ft | 457 kts | 330° |
| 2026-05-07 13:32 | 55.67491 | 14.08985 | 40094 ft | 456 kts | 330° |
| 2026-05-07 13:32 | 55.73178 | 14.03823 | 40088 ft | 456 kts | 330° |
| 2026-05-07 13:33 | 55.78778 | 13.98723 | 40093 ft | 454 kts | 329° |
| 2026-05-07 13:33 | 55.84402 | 13.93585 | 40077 ft | 454 kts | 329° |
| 2026-05-07 13:34 | 55.92816 | 13.85865 | 40082 ft | 453 kts | 329° |
| 2026-05-07 13:35 | 55.98423 | 13.80701 | 40076 ft | 453 kts | 329° |
| 2026-05-07 13:35 | 56.03989 | 13.75556 | 40076 ft | 453 kts | 329° |
| 2026-05-07 13:36 | 56.09587 | 13.70365 | 40100 ft | 453 kts | 329° |
| 2026-05-07 13:36 | 56.15187 | 13.65155 | 40089 ft | 454 kts | 329° |
| 2026-05-07 13:37 | 56.20792 | 13.59924 | 40080 ft | 454 kts | 329° |
| 2026-05-07 13:37 | 56.26394 | 13.54678 | 40076 ft | 453 kts | 329° |
| 2026-05-07 13:38 | 56.31982 | 13.49428 | 40078 ft | 453 kts | 329° |
| 2026-05-07 13:38 | 56.37580 | 13.44151 | 40083 ft | 453 kts | 329° |
| 2026-05-07 13:39 | 56.43154 | 13.38879 | 40091 ft | 452 kts | 329° |
| 2026-05-07 13:39 | 56.48728 | 13.33589 | 40088 ft | 452 kts | 329° |
| 2026-05-07 13:40 | 56.54259 | 13.28322 | 40090 ft | 451 kts | 329° |
| 2026-05-07 13:40 | 56.59824 | 13.23006 | 40085 ft | 451 kts | 329° |
| 2026-05-07 13:41 | 56.65365 | 13.17695 | 40091 ft | 450 kts | 329° |
| 2026-05-07 13:41 | 56.70902 | 13.12370 | 40117 ft | 449 kts | 329° |
| 2026-05-07 13:42 | 56.76426 | 13.07038 | 40099 ft | 449 kts | 329° |
| 2026-05-07 13:42 | 56.81942 | 13.01697 | 40096 ft | 448 kts | 329° |
| 2026-05-07 13:43 | 56.87414 | 12.96381 | 40111 ft | 447 kts | 329° |
| 2026-05-07 13:43 | 56.92904 | 12.91030 | 40092 ft | 447 kts | 329° |
| 2026-05-07 13:44 | 56.98385 | 12.85670 | 40084 ft | 446 kts | 329° |
| 2026-05-07 13:44 | 57.03854 | 12.80303 | 40098 ft | 445 kts | 329° |
| 2026-05-07 13:45 | 57.09313 | 12.74927 | 40090 ft | 444 kts | 328° |
| 2026-05-07 13:45 | 57.14758 | 12.69549 | 40086 ft | 444 kts | 328° |
| 2026-05-07 13:46 | 57.20154 | 12.64199 | 40090 ft | 443 kts | 328° |
| 2026-05-07 13:46 | 57.25577 | 12.58806 | 40095 ft | 442 kts | 328° |
| 2026-05-07 13:47 | 57.30984 | 12.53409 | 40105 ft | 442 kts | 328° |
| 2026-05-07 13:47 | 57.36397 | 12.47989 | 40101 ft | 442 kts | 328° |
| 2026-05-07 13:48 | 57.41845 | 12.42512 | 39543 ft | 449 kts | 328° |
| 2026-05-07 13:48 | 57.44585 | 12.39752 | 39019 ft | 448 kts | 328° |
| 2026-05-07 13:48 | 57.47321 | 12.36992 | 38411 ft | 447 kts | 328° |
| 2026-05-07 13:48 | 57.50055 | 12.34229 | 37765 ft | 446 kts | 328° |
| 2026-05-07 13:49 | 57.52768 | 12.31484 | 37214 ft | 443 kts | 328° |
| 2026-05-07 13:49 | 57.55473 | 12.28743 | 36639 ft | 440 kts | 328° |
| 2026-05-07 13:49 | 57.58149 | 12.26025 | 36079 ft | 438 kts | 329° |
| 2026-05-07 13:49 | 57.60808 | 12.23319 | 35653 ft | 432 kts | 329° |
| 2026-05-07 13:50 | 57.63436 | 12.20641 | 35222 ft | 428 kts | 328° |
| 2026-05-07 13:50 | 57.66029 | 12.17994 | 34799 ft | 423 kts | 328° |
| 2026-05-07 13:50 | 57.68599 | 12.15367 | 34391 ft | 418 kts | 328° |
| 2026-05-07 13:50 | 57.71142 | 12.12763 | 33952 ft | 414 kts | 328° |
| 2026-05-07 13:51 | 57.73653 | 12.10187 | 33502 ft | 409 kts | 328° |
| 2026-05-07 13:51 | 57.76129 | 12.07642 | 33096 ft | 403 kts | 328° |
| 2026-05-07 13:51 | 57.78573 | 12.05126 | 32692 ft | 398 kts | 328° |
| 2026-05-07 13:51 | 57.80988 | 12.02638 | 32294 ft | 394 kts | 328° |
| 2026-05-07 13:52 | 57.83376 | 12.00172 | 31884 ft | 390 kts | 328° |
| 2026-05-07 13:52 | 57.85710 | 11.97758 | 31508 ft | 386 kts | 328° |
| 2026-05-07 13:52 | 57.88052 | 11.95331 | 31105 ft | 382 kts | 328° |
| 2026-05-07 13:52 | 57.90370 | 11.92927 | 30724 ft | 379 kts | 328° |
| 2026-05-07 13:53 | 57.92669 | 11.90539 | 30365 ft | 376 kts | 327° |
| 2026-05-07 13:53 | 57.94952 | 11.88163 | 29947 ft | 373 kts | 327° |
| 2026-05-07 13:53 | 57.97213 | 11.85808 | 29544 ft | 368 kts | 327° |
| 2026-05-07 13:53 | 57.99443 | 11.83482 | 29154 ft | 364 kts | 327° |
| 2026-05-07 13:54 | 58.01642 | 11.81185 | 28772 ft | 360 kts | 327° |
| 2026-05-07 13:54 | 58.03821 | 11.78905 | 28392 ft | 356 kts | 327° |
| 2026-05-07 13:54 | 58.05984 | 11.76638 | 28015 ft | 352 kts | 327° |
| 2026-05-07 13:54 | 58.08089 | 11.74429 | 27644 ft | 349 kts | 327° |
| 2026-05-07 13:55 | 58.10240 | 11.72166 | 27275 ft | 353 kts | 327° |
| 2026-05-07 13:55 | 58.12447 | 11.69835 | 26905 ft | 375 kts | 327° |
| 2026-05-07 13:55 | 58.14730 | 11.67426 | 26484 ft | 383 kts | 327° |
| 2026-05-07 13:55 | 58.17057 | 11.64953 | 26048 ft | 381 kts | 326° |
| 2026-05-07 13:56 | 58.19187 | 11.62074 | 25743 ft | 372 kts | 317° |
| 2026-05-07 13:56 | 58.21151 | 11.58907 | 25503 ft | 371 kts | 316° |
| 2026-05-07 13:56 | 58.23119 | 11.55696 | 25214 ft | 373 kts | 316° |
| 2026-05-07 13:56 | 58.25082 | 11.52488 | 24834 ft | 372 kts | 316° |
| 2026-05-07 13:57 | 58.27041 | 11.49294 | 24427 ft | 369 kts | 316° |
| 2026-05-07 13:57 | 58.28982 | 11.46136 | 24030 ft | 366 kts | 316° |
| 2026-05-07 13:57 | 58.30913 | 11.42995 | 23630 ft | 364 kts | 316° |
| 2026-05-07 13:57 | 58.32838 | 11.39866 | 23163 ft | 362 kts | 316° |
| 2026-05-07 13:58 | 58.34745 | 11.36763 | 22749 ft | 359 kts | 316° |
| 2026-05-07 13:58 | 58.36637 | 11.33681 | 22350 ft | 357 kts | 316° |
| 2026-05-07 13:58 | 58.38494 | 11.30653 | 21952 ft | 354 kts | 316° |
| 2026-05-07 13:58 | 58.40366 | 11.27596 | 21561 ft | 353 kts | 316° |
| 2026-05-07 13:59 | 58.42224 | 11.24557 | 21168 ft | 352 kts | 316° |
| 2026-05-07 13:59 | 58.44079 | 11.21520 | 20767 ft | 350 kts | 316° |
| 2026-05-07 13:59 | 58.45925 | 11.18491 | 20374 ft | 349 kts | 316° |
| 2026-05-07 13:59 | 58.47771 | 11.15459 | 19992 ft | 349 kts | 316° |
| 2026-05-07 14:00 | 58.49607 | 11.12440 | 19603 ft | 348 kts | 316° |
| 2026-05-07 14:00 | 58.51301 | 11.09649 | 19252 ft | 347 kts | 316° |
| 2026-05-07 14:00 | 58.53032 | 11.06795 | 18889 ft | 346 kts | 316° |
| 2026-05-07 14:00 | 58.54844 | 11.03802 | 18513 ft | 345 kts | 316° |
| 2026-05-07 14:01 | 58.56663 | 11.00794 | 18090 ft | 344 kts | 316° |
| 2026-05-07 14:01 | 58.58449 | 10.97837 | 17668 ft | 343 kts | 316° |
| 2026-05-07 14:01 | 58.60245 | 10.94859 | 17278 ft | 339 kts | 316° |
| 2026-05-07 14:01 | 58.62018 | 10.91916 | 16889 ft | 335 kts | 316° |
| 2026-05-07 14:02 | 58.63770 | 10.89003 | 16505 ft | 331 kts | 316° |
| 2026-05-07 14:02 | 58.65483 | 10.86150 | 16133 ft | 327 kts | 316° |
| 2026-05-07 14:02 | 58.67198 | 10.83290 | 15766 ft | 325 kts | 316° |
| 2026-05-07 14:02 | 58.68898 | 10.80451 | 15392 ft | 323 kts | 316° |
| 2026-05-07 14:03 | 58.70587 | 10.77626 | 15032 ft | 321 kts | 316° |
| 2026-05-07 14:03 | 58.72271 | 10.74806 | 14679 ft | 320 kts | 316° |
| 2026-05-07 14:03 | 58.73943 | 10.72001 | 14320 ft | 319 kts | 316° |
| 2026-05-07 14:03 | 58.75612 | 10.69201 | 13956 ft | 318 kts | 316° |
| 2026-05-07 14:04 | 58.77276 | 10.66403 | 13549 ft | 317 kts | 316° |
| 2026-05-07 14:04 | 58.78936 | 10.63611 | 13156 ft | 316 kts | 316° |
| 2026-05-07 14:04 | 58.80603 | 10.60864 | 12780 ft | 316 kts | 321° |
| 2026-05-07 14:04 | 58.82500 | 10.58691 | 12373 ft | 318 kts | 331° |
| 2026-05-07 14:05 | 58.84503 | 10.56871 | 11988 ft | 317 kts | 333° |
| 2026-05-07 14:05 | 58.86507 | 10.55108 | 11610 ft | 317 kts | 333° |
| 2026-05-07 14:05 | 58.88503 | 10.53308 | 11249 ft | 316 kts | 332° |
| 2026-05-07 14:05 | 58.90480 | 10.51474 | 10899 ft | 315 kts | 332° |
| 2026-05-07 14:06 | 58.92441 | 10.49625 | 10543 ft | 314 kts | 332° |
| 2026-05-07 14:06 | 58.94354 | 10.47813 | 10400 ft | 306 kts | 332° |
| 2026-05-07 14:06 | 58.96345 | 10.46441 | 10232 ft | 306 kts | 351° |
| 2026-05-07 14:06 | 58.98490 | 10.46324 | 10191 ft | 311 kts | 358° |
| 2026-05-07 14:07 | 59.00671 | 10.46352 | 10151 ft | 316 kts | 358° |
| 2026-05-07 14:07 | 59.02872 | 10.46381 | 10121 ft | 316 kts | 358° |
| 2026-05-07 14:07 | 59.05075 | 10.46399 | 10025 ft | 317 kts | 358° |
| 2026-05-07 14:07 | 59.07273 | 10.46407 | 9855 ft | 315 kts | 358° |
| 2026-05-07 14:08 | 59.09459 | 10.46409 | 9676 ft | 313 kts | 358° |
| 2026-05-07 14:08 | 59.11626 | 10.46406 | 9350 ft | 313 kts | 358° |
| 2026-05-07 14:08 | 59.13802 | 10.46401 | 8872 ft | 313 kts | 358° |
| 2026-05-07 14:08 | 59.15988 | 10.46395 | 8390 ft | 314 kts | 358° |
| 2026-05-07 14:09 | 59.18166 | 10.46389 | 7986 ft | 311 kts | 358° |
| 2026-05-07 14:09 | 59.20314 | 10.46319 | 7673 ft | 306 kts | 357° |
| 2026-05-07 14:09 | 59.21716 | 10.46238 | 7421 ft | 304 kts | 357° |
| 2026-05-07 14:09 | 59.24538 | 10.46072 | 6896 ft | 302 kts | 357° |
| 2026-05-07 14:10 | 59.25921 | 10.45997 | 6670 ft | 299 kts | 357° |
| 2026-05-07 14:10 | 59.28606 | 10.45868 | 6139 ft | 284 kts | 358° |
| 2026-05-07 14:10 | 59.30559 | 10.45831 | 5723 ft | 275 kts | 359° |
| 2026-05-07 14:10 | 59.32435 | 10.45805 | 5452 ft | 264 kts | 359° |
| 2026-05-07 14:11 | 59.33635 | 10.45787 | 5278 ft | 257 kts | 359° |
| 2026-05-07 14:11 | 59.35389 | 10.45698 | 5021 ft | 247 kts | 352° |
| 2026-05-07 14:11 | 59.36928 | 10.44414 | 4728 ft | 242 kts | 321° |
| 2026-05-07 14:11 | 59.37943 | 10.41860 | 4438 ft | 236 kts | 295° |
| 2026-05-07 14:12 | 59.38283 | 10.38796 | 4232 ft | 227 kts | 271° |
| 2026-05-07 14:12 | 59.38020 | 10.35835 | 4054 ft | 215 kts | 249° |
| 2026-05-07 14:12 | 59.37377 | 10.33224 | 3842 ft | 209 kts | 242° |
| 2026-05-07 14:12 | 59.36692 | 10.30755 | 3611 ft | 204 kts | 241° |
| 2026-05-07 14:13 | 59.36023 | 10.28370 | 3406 ft | 198 kts | 240° |
| 2026-05-07 14:13 | 59.35255 | 10.26235 | 3301 ft | 188 kts | 215° |
| 2026-05-07 14:13 | 59.34017 | 10.25698 | 3205 ft | 187 kts | 176° |
| 2026-05-07 14:13 | 59.32710 | 10.25670 | 2924 ft | 183 kts | 188° |
| 2026-05-07 14:14 | 59.31461 | 10.25493 | 2633 ft | 174 kts | 180° |
| 2026-05-07 14:14 | 59.30296 | 10.25542 | 2420 ft | 161 kts | 177° |
| 2026-05-07 14:14 | 59.29235 | 10.25621 | 2206 ft | 147 kts | 179° |
| 2026-05-07 14:14 | 59.28231 | 10.25675 | 1972 ft | 143 kts | 186° |
| 2026-05-07 14:15 | 59.27257 | 10.25645 | 1669 ft | 138 kts | 178° |
| 2026-05-07 14:15 | 59.26339 | 10.25680 | 1544 ft | 127 kts | 179° |
| 2026-05-07 14:15 | 59.25396 | 10.25710 | 1411 ft | 140 kts | 178° |
| 2026-05-07 14:15 | 59.24422 | 10.25734 | 1240 ft | 138 kts | 179° |
| 2026-05-07 14:16 | 59.23484 | 10.25757 | 1007 ft | 132 kts | 178° |
| 2026-05-07 14:16 | 59.22559 | 10.25776 | 842 ft | 134 kts | 179° |
| 2026-05-07 14:16 | 59.22009 | 10.25779 | 755 ft | 137 kts | 178° |
| 2026-05-07 14:16 | 59.21150 | 10.25802 | 597 ft | 137 kts | 178° |
| 2026-05-07 14:17 | 59.20198 | 10.25826 | 395 ft | 135 kts | 178° |
| 2026-05-07 14:17 | 59.19273 | 10.25848 | 277 ft | 126 kts | 179° |
| 2026-05-07 14:17 | 59.18551 | 10.25863 | 278 ft | 82 kts | 179° |
| 2026-05-07 14:17 | 59.18261 | 10.25860 | 276 ft | 16 kts | 196° |
| 2026-05-07 14:18 | 59.18183 | 10.25709 | 277 ft | 16 kts | 228° |
| 2026-05-07 14:18 | 59.18110 | 10.25559 | 277 ft | 15 kts | 217° |
| 2026-05-07 14:18 | 59.18065 | 10.25420 | 277 ft | 8 kts | 269° |
| 2026-05-07 14:18 | 59.18039 | 10.25331 | 277 ft | 8 kts | 200° |
| 2026-05-07 14:19 | 59.18014 | 10.25327 | 277 ft | 1 kts | 181° |
| 2026-05-07 14:19 | 59.18007 | 10.25328 | 277 ft | 1 kts | 180° |
| 2026-05-07 14:19 | 59.18005 | 10.25328 | 277 ft | 0 kts | 180° |